Tutti
Ballina/Byron Gateway Airport (Ballina, New South Wales) BNK Meteo
|
Ballina, New South Wales (BNK / YBNA)
Cielo sereno
Venti leggeri |
|
21 °C |
Previsione area Terminal BNK
| Date | Time (AEST) | Flight Rules | Wind Dir. | Speed | Type | Height AGL (ft) | Visibility | Remarks | ||||||
|---|---|---|---|---|---|---|---|---|---|---|---|---|---|---|
| 09-mag | 21:00 | VFR | Variable | 3 kt | Scattered | 2.500 | >= 6 miles | |||||||
| 09-mag | 20:00 | VFR | Variable | 3 kt | Scattered | 2.500 | >= 6 miles | |||||||
| 09-mag | 19:00 | VFR | 190° | 7 kt | Clouds and Visibility are OK | >= 6 miles | ||||||||
| 09-mag | 18:00 | VFR | 190° | 7 kt | Clouds and Visibility are OK | >= 6 miles | ||||||||
| 09-mag | 17:00 | VFR | 190° | 7 kt | Clouds and Visibility are OK | >= 6 miles | ||||||||
| 09-mag | 16:00 | VFR | 190° | 7 kt | Clouds and Visibility are OK | >= 6 miles | ||||||||
Storico METAR BNK recente
| Date | Time (AEST) | Flight Rules | Wind Dir. | Speed | Type | Height AGL (ft) | Visibility | Temp (°C) | Temp (°F) | Dew Point (°C) | Dew Point (°F) | Rel. Humid. | Pressure | Density Altitude | Remarks |
|---|---|---|---|---|---|---|---|---|---|---|---|---|---|---|---|
| 09-mag | 16:00 | VFR | 170° | 10 kt | 10000 meters | 21° | 69° | 14° | 57° | 64% | 1022 mb | 467 ft | |||
| 09-mag | 15:00 | VFR | 170° | 11 kt | 10000 meters | 22° | 71° | 13° | 55° | 57% | 1022 mb | 587 ft | |||
| 09-mag | 14:00 | VFR | 180° | 10 kt | 10000 meters | 22° | 71° | 12° | 53° | 53% | 1022 mb | 587 ft | |||
| 09-mag | 13:00 | VFR | 200° | 8 kt | 10000 meters | 22° | 71° | 12° | 53° | 53% | 1022 mb | 587 ft | |||
| 09-mag | 12:00 | VFR | 230° | 9 kt | 10000 meters | 21° | 69° | 11° | 51° | 53% | 1022 mb | 467 ft | |||
| 09-mag | 11:00 | VFR | 220° | 10 kt | 10000 meters | 20° | 68° | 11° | 51° | 56% | 1023 mb | 318 ft | |||
| 09-mag | 10:00 | VFR | 250° | 10 kt | 10000 meters | 19° | 66° | 10° | 50° | 56% | 1023 mb | 198 ft | |||
| 09-mag | 09:00 | VFR | 250° | 8 kt | 10000 meters | 18° | 64° | 9° | 48° | 56% | 1023 mb | 78 ft | |||
| 09-mag | 08:00 | VFR | 280° | 6 kt | 10000 meters | 14° | 57° | 10° | 50° | 77% | 1023 mb | -402 ft | |||
| 09-mag | 07:00 | VFR | Calm | 10000 meters | 9° | 48° | 9° | 48° | 100% | 1022 mb | -973 ft | ||||
| 09-mag | 06:00 | VFR | 300° | 4 kt | 10000 meters | 8° | 46° | 8° | 46° | 100% | 1021 mb | -1.063 ft | |||
| 09-mag | 05:00 | VFR | Calm | 10000 meters | 8° | 46° | 7° | 44° | 93% | 1021 mb | -1.063 ft | ||||
| 09-mag | 04:00 | VFR | 300° | 1 kt | 10000 meters | 8° | 46° | 8° | 46° | 100% | 1020 mb | -1.034 ft | |||
| 09-mag | 03:00 | VFR | Calm | 10000 meters | 9° | 48° | 8° | 46° | 93% | 1020 mb | -914 ft | ||||
| 09-mag | 02:00 | VFR | Calm | 10000 meters | 9° | 48° | 8° | 46° | 93% | 1020 mb | -914 ft | ||||
| 09-mag | 01:00 | VFR | Calm | 10000 meters | 9° | 48° | 9° | 48° | 100% | 1020 mb | -914 ft | ||||
| 09-mag | 00:00 | VFR | Calm | 10000 meters | 9° | 48° | 8° | 46° | 93% | 1020 mb | -914 ft | ||||
| 08-mag | 23:00 | VFR | 300° | 2 kt | 10000 meters | 9° | 48° | 9° | 48° | 100% | 1020 mb | -914 ft | |||
| 08-mag | 22:00 | VFR | Calm | 10000 meters | 10° | 50° | 9° | 48° | 93% | 1020 mb | -794 ft | ||||
| 08-mag | 21:00 | VFR | Calm | 10000 meters | 11° | 51° | 10° | 50° | 94% | 1019 mb | -644 ft | ||||
| 08-mag | 20:00 | VFR | Calm | 10000 meters | 11° | 51° | 9° | 48° | 87% | 1019 mb | -644 ft | ||||
| 08-mag | 19:00 | VFR | Calm | 10000 meters | 12° | 53° | 10° | 50° | 88% | 1018 mb | -495 ft | ||||
| 08-mag | 18:00 | VFR | 360° | 4 kt | 10000 meters | 15° | 59° | 10° | 50° | 72% | 1018 mb | -135 ft | |||
| 08-mag | 17:00 | VFR | 70° | 3 kt | 10000 meters | 16° | 60° | 9° | 48° | 63% | 1017 mb | 15 ft |
Accedi
| Il tuo browser non è supportato. fai l'upgrade del tuo browser |
